createdAt,value
2023-05-09T00:00:11.865Z,100089.13
2023-05-09T00:02:41.627Z,100092.78
2023-05-09T00:05:08.663Z,100086.47
2023-05-09T00:07:36.503Z,100094.38
2023-05-09T00:10:03.733Z,100085.81
2023-05-09T00:12:56.856Z,100081.03
2023-05-09T00:15:23.613Z,100077.91
2023-05-09T00:17:52.647Z,100084.22
2023-05-09T00:20:20.446Z,100079.28
2023-05-09T00:22:47.213Z,100077.81
2023-05-09T00:25:15.927Z,100073.09
2023-05-09T00:27:43.143Z,100068.97
2023-05-09T00:30:10.654Z,100066.88
2023-05-09T00:32:37.897Z,100064.00
2023-05-09T00:35:05.235Z,100064.53
2023-05-09T00:37:32.127Z,100062.97
2023-05-09T00:39:59.950Z,100062.75
2023-05-09T00:42:27.123Z,100059.31
2023-05-09T00:44:54.887Z,100056.44
2023-05-09T00:47:24.167Z,100055.66
2023-05-09T00:49:51.343Z,100050.41
2023-05-09T00:52:18.336Z,100055.66
2023-05-09T00:54:45.865Z,100057.84
2023-05-09T00:57:12.851Z,100059.75
2023-05-09T00:59:42.100Z,100057.66
2023-05-09T01:02:08.838Z,100054.28
2023-05-09T01:04:36.016Z,100055.38
2023-05-09T01:07:10.315Z,100051.16
2023-05-09T01:09:55.907Z,100041.44
2023-05-09T01:12:52.068Z,100035.44
2023-05-09T01:15:30.078Z,100040.97
2023-05-09T01:18:21.420Z,100032.84
2023-05-09T01:21:06.069Z,100043.16
2023-05-09T01:23:36.302Z,100043.75
2023-05-09T01:26:29.273Z,100046.94
2023-05-09T01:29:24.215Z,100048.00
2023-05-09T01:31:55.844Z,100044.84
2023-05-09T01:34:27.106Z,100041.22
2023-05-09T01:37:00.941Z,100043.03
2023-05-09T01:39:34.632Z,100036.47
2023-05-09T01:42:04.543Z,100039.63
2023-05-09T01:44:37.350Z,100035.09
2023-05-09T01:47:06.876Z,100040.66
2023-05-09T01:49:37.915Z,100034.63
2023-05-09T01:52:08.974Z,100030.94
2023-05-09T01:54:37.154Z,100024.59
2023-05-09T01:57:06.485Z,100028.59
2023-05-09T01:59:35.085Z,100030.44
2023-05-09T02:02:04.692Z,100025.75
2023-05-09T02:04:35.925Z,100028.16
2023-05-09T02:07:29.916Z,100035.56
2023-05-09T02:10:00.885Z,100030.34
2023-05-09T02:12:28.781Z,100032.94
2023-05-09T02:14:57.052Z,100041.66
2023-05-09T02:17:23.992Z,100036.94
2023-05-09T02:19:50.838Z,100035.91
2023-05-09T02:22:18.990Z,100034.38
2023-05-09T02:24:46.013Z,100032.53
2023-05-09T02:27:15.749Z,100033.06
2023-05-09T02:29:51.035Z,100031.78
2023-05-09T02:32:23.603Z,100034.16
2023-05-09T02:34:53.945Z,100033.16
2023-05-09T02:37:25.985Z,100023.41
2023-05-09T02:39:52.807Z,100035.50
2023-05-09T02:42:23.275Z,100029.22
2023-05-09T02:44:50.877Z,100024.78
2023-05-09T02:47:18.236Z,100028.19
2023-05-09T02:49:45.262Z,100031.63
2023-05-09T02:52:12.817Z,100031.63
2023-05-09T02:54:39.930Z,100024.28
2023-05-09T02:57:32.078Z,100033.19
2023-05-09T03:00:00.450Z,100026.91
2023-05-09T03:02:27.948Z,100032.44
2023-05-09T03:04:57.924Z,100033.75
2023-05-09T03:07:24.850Z,100034.28
2023-05-09T03:09:51.998Z,100031.66
2023-05-09T03:12:18.945Z,100032.69
2023-05-09T03:14:45.759Z,100027.72
2023-05-09T03:17:13.967Z,100030.34
2023-05-09T03:19:40.767Z,100030.09
2023-05-09T03:22:08.634Z,100018.78
2023-05-09T03:24:43.128Z,100023.25
2023-05-09T03:27:10.002Z,100025.09
2023-05-09T03:29:36.753Z,100022.47
2023-05-09T03:32:05.598Z,100026.94
2023-05-09T03:34:32.371Z,100028.50
2023-05-09T03:37:00.440Z,100030.88
2023-05-09T03:42:20.491Z,100030.06
2023-05-09T03:44:50.793Z,100021.94
2023-05-09T03:47:23.627Z,100021.94
2023-05-09T03:49:50.606Z,100028.50
2023-05-09T03:55:18.085Z,100028.50
2023-05-09T03:57:49.594Z,100035.84
2023-05-09T04:00:17.495Z,100035.84
2023-05-09T04:02:58.645Z,100034.81
2023-05-09T04:05:35.473Z,100037.41
2023-05-09T04:08:04.809Z,100044.50
2023-05-09T04:10:32.463Z,100041.63
2023-05-09T04:12:59.377Z,100044.25
2023-05-09T04:15:26.402Z,100045.31
2023-05-09T04:17:53.994Z,100041.13
2023-05-09T04:20:21.531Z,100041.38
2023-05-09T04:22:48.284Z,100044.78
2023-05-09T04:25:16.877Z,100040.03
2023-05-09T04:27:45.054Z,100044.78
2023-05-09T04:30:12.465Z,100041.91
2023-05-09T04:32:39.651Z,100050.53
2023-05-09T04:35:07.666Z,100037.16
2023-05-09T04:37:39.723Z,100043.97
2023-05-09T04:40:07.776Z,100041.63
2023-05-09T04:42:40.759Z,100051.06
2023-05-09T04:45:08.253Z,100041.34
2023-05-09T04:47:35.987Z,100053.69
2023-05-09T04:50:03.227Z,100053.69
2023-05-09T04:52:30.142Z,100045.78
2023-05-09T04:54:57.564Z,100045.03
2023-05-09T04:57:27.496Z,100041.63
2023-05-09T04:59:57.122Z,100039.00
2023-05-09T05:02:24.129Z,100041.13
2023-05-09T05:04:56.080Z,100040.56
2023-05-09T05:07:27.584Z,100048.69
2023-05-09T05:09:54.435Z,100042.66
2023-05-09T05:12:21.273Z,100044.25
2023-05-09T05:14:48.095Z,100046.59
2023-05-09T05:17:19.396Z,100045.00
2023-05-09T05:19:46.825Z,100047.06
2023-05-09T05:22:14.566Z,100050.75
2023-05-09T05:24:43.949Z,100049.44
2023-05-09T05:27:10.821Z,100053.38
2023-05-09T05:29:37.797Z,100045.75
2023-05-09T05:32:04.832Z,100048.06
2023-05-09T05:34:31.774Z,100049.88
2023-05-09T05:36:58.684Z,100045.16
2023-05-09T05:39:25.760Z,100032.25
2023-05-09T05:41:53.453Z,100036.97
2023-05-09T05:44:20.266Z,100027.75
2023-05-09T05:46:47.464Z,100025.09
2023-05-09T05:49:14.566Z,100026.38
2023-05-09T05:51:41.348Z,100026.31
2023-05-09T05:54:09.401Z,100029.91
2023-05-09T05:56:37.014Z,100035.09
2023-05-09T05:59:04.058Z,100030.09
2023-05-09T06:01:30.919Z,100036.38
2023-05-09T06:03:58.730Z,100025.28
2023-05-09T06:06:28.735Z,100023.69
2023-05-09T06:08:55.919Z,100031.44
2023-05-09T06:11:23.675Z,100020.88
2023-05-09T06:13:50.461Z,100027.94
2023-05-09T06:16:20.110Z,100017.06
2023-05-09T06:18:50.211Z,100026.69
2023-05-09T06:21:17.200Z,100009.22
2023-05-09T06:24:01.433Z,100017.78
2023-05-09T06:26:32.573Z,100014.19
2023-05-09T06:28:59.392Z,100011.16
2023-05-09T06:31:26.274Z,100020.03
2023-05-09T06:33:53.856Z,100005.72
2023-05-09T06:36:20.641Z,100007.00
2023-05-09T06:38:47.445Z,99998.25
2023-05-09T06:41:14.240Z,100003.16
2023-05-09T06:43:41.097Z,99993.13
2023-05-09T06:46:08.481Z,100009.66
2023-05-09T06:48:35.282Z,100002.19
2023-05-09T06:51:02.109Z,99999.47
2023-05-09T06:53:28.869Z,99988.84
2023-05-09T06:55:55.938Z,99995.63
2023-05-09T06:58:23.346Z,100007.38
2023-05-09T07:00:50.134Z,99997.59
2023-05-09T07:03:17.262Z,99997.75
2023-05-09T07:05:44.188Z,99998.94
2023-05-09T07:08:10.960Z,99992.81
2023-05-09T07:10:38.396Z,99994.09
2023-05-09T07:13:05.603Z,99989.22
2023-05-09T07:15:41.501Z,99991.81
2023-05-09T07:18:09.758Z,99990.34
2023-05-09T07:20:36.906Z,99987.06
2023-05-09T07:23:04.719Z,99989.13
2023-05-09T07:25:31.717Z,99989.22
2023-05-09T07:27:58.673Z,99985.13
2023-05-09T07:30:25.522Z,99979.00
2023-05-09T07:32:52.577Z,99975.47
2023-05-09T07:35:20.345Z,99967.75
2023-05-09T07:37:47.191Z,99966.88
2023-05-09T07:40:14.787Z,99976.47
2023-05-09T07:42:42.118Z,99962.38
2023-05-09T07:45:09.234Z,99958.88
2023-05-09T07:47:36.030Z,99950.06
2023-05-09T07:50:02.811Z,99963.84
2023-05-09T07:52:29.722Z,99955.59
2023-05-09T07:54:56.441Z,99957.84
2023-05-09T07:57:23.282Z,99950.03
2023-05-09T07:59:50.022Z,99950.66
2023-05-09T08:02:16.956Z,99944.22
2023-05-09T08:04:43.762Z,99942.72
2023-05-09T08:07:10.612Z,99938.09
2023-05-09T08:09:37.346Z,99934.75
2023-05-09T08:12:04.336Z,99936.97
2023-05-09T08:14:31.150Z,99941.06
2023-05-09T08:16:57.958Z,99940.97
2023-05-09T08:19:24.869Z,99940.38
2023-05-09T08:21:52.618Z,99943.97
2023-05-09T08:24:19.417Z,99933.25
2023-05-09T08:26:46.197Z,99936.06
2023-05-09T08:29:13.052Z,99930.84
2023-05-09T08:31:39.850Z,99934.78
2023-05-09T08:34:06.832Z,99934.94
2023-05-09T08:36:33.797Z,99935.41
2023-05-09T08:39:00.751Z,99934.63
2023-05-09T08:41:29.239Z,99933.72
2023-05-09T08:43:56.259Z,99928.13
2023-05-09T08:46:29.844Z,99926.44
2023-05-09T08:48:58.085Z,99917.31
2023-05-09T08:51:25.246Z,99914.94
2023-05-09T08:53:52.210Z,99920.56
2023-05-09T08:56:19.359Z,99910.78
2023-05-09T08:58:46.493Z,99915.00
2023-05-09T09:01:14.431Z,99910.66
2023-05-09T09:03:42.436Z,99908.59
2023-05-09T09:06:09.903Z,99911.09
2023-05-09T09:08:37.327Z,99905.47
2023-05-09T09:11:04.488Z,99904.41
2023-05-09T09:13:32.684Z,99900.66
2023-05-09T09:16:01.509Z,99903.50
2023-05-09T09:18:30.483Z,99899.13
2023-05-09T09:21:02.967Z,99899.78
2023-05-09T09:23:31.776Z,99899.66
2023-05-09T09:26:02.678Z,99896.06
2023-05-09T09:28:29.501Z,99893.41
2023-05-09T09:30:56.993Z,99892.97
2023-05-09T09:33:25.804Z,99891.56
2023-05-09T09:35:54.365Z,99887.22
2023-05-09T09:38:23.038Z,99892.84
2023-05-09T09:40:53.874Z,99885.53
2023-05-09T09:43:20.749Z,99888.22
2023-05-09T09:45:50.791Z,99881.81
2023-05-09T09:48:17.596Z,99886.97
2023-05-09T09:50:47.070Z,99887.94
2023-05-09T09:53:13.867Z,99886.56
2023-05-09T09:55:52.106Z,99890.59
2023-05-09T09:58:20.685Z,99880.97
2023-05-09T10:00:48.113Z,99875.03
2023-05-09T10:03:16.378Z,99875.03
2023-05-09T10:05:43.307Z,99868.78
2023-05-09T10:08:10.133Z,99868.78
2023-05-09T10:10:37.961Z,99872.22
2023-05-09T10:13:11.044Z,99862.09
2023-05-09T10:15:52.245Z,99862.88
2023-05-09T10:18:25.690Z,99857.72
2023-05-09T10:20:53.914Z,99849.59
2023-05-09T10:23:21.459Z,99860.50
2023-05-09T10:25:54.796Z,99855.22
2023-05-09T10:28:27.822Z,99853.19
2023-05-09T10:31:07.875Z,99849.59
2023-05-09T10:33:42.754Z,99847.41
2023-05-09T10:36:10.168Z,99846.75
2023-05-09T10:38:37.900Z,99830.56
2023-05-09T10:41:05.139Z,99835.09
2023-05-09T10:43:35.480Z,99834.59
2023-05-09T10:46:05.436Z,99824.91
2023-05-09T10:48:37.256Z,99833.94
2023-05-09T10:51:04.916Z,99817.59
2023-05-09T10:53:48.832Z,99814.16
2023-05-09T10:56:34.684Z,99819.28
2023-05-09T10:59:01.885Z,99822.09
2023-05-09T11:01:33.467Z,99823.97
2023-05-09T11:04:01.710Z,99815.69
2023-05-09T11:06:41.651Z,99815.38
2023-05-09T11:09:29.697Z,99808.97
2023-05-09T11:11:58.526Z,99802.25
2023-05-09T11:14:31.997Z,99796.31
2023-05-09T11:17:24.941Z,99791.47
2023-05-09T11:19:51.826Z,99795.84
2023-05-09T11:22:30.643Z,99788.00
2023-05-09T11:25:13.325Z,99785.94
2023-05-09T11:27:49.297Z,99783.56
2023-05-09T11:30:20.199Z,99781.97
2023-05-09T11:32:56.452Z,99781.66
2023-05-09T11:35:24.534Z,99779.00
2023-05-09T11:38:12.437Z,99769.16
2023-05-09T11:40:40.002Z,99774.91
2023-05-09T11:43:07.718Z,99777.78
2023-05-09T11:45:35.070Z,99774.78
2023-05-09T11:48:01.844Z,99773.38
2023-05-09T11:50:28.848Z,99761.66
2023-05-09T11:52:55.918Z,99764.78
2023-05-09T11:55:23.185Z,99761.13
2023-05-09T11:57:54.058Z,99765.31
2023-05-09T12:00:25.206Z,99760.56
2023-05-09T12:02:53.225Z,99744.75
2023-05-09T12:05:21.985Z,99748.19
2023-05-09T12:07:49.009Z,99734.28
2023-05-09T12:10:21.076Z,99742.50
2023-05-09T12:12:53.243Z,99732.78
2023-05-09T12:15:20.483Z,99726.50
2023-05-09T12:17:50.435Z,99730.84
2023-05-09T12:20:18.826Z,99730.84
2023-05-09T12:22:52.796Z,99712.88
2023-05-09T12:25:19.781Z,99731.81
2023-05-09T12:27:46.510Z,99727.59
2023-05-09T12:30:13.956Z,99715.41
2023-05-09T12:32:41.024Z,99723.84
2023-05-09T12:35:09.111Z,99706.34
2023-05-09T12:37:36.387Z,99712.75
2023-05-09T12:40:11.897Z,99698.06
2023-05-09T12:42:39.063Z,99702.59
2023-05-09T12:45:08.691Z,99701.94
2023-05-09T12:47:35.648Z,99693.53
2023-05-09T12:50:04.626Z,99689.97
2023-05-09T12:52:54.605Z,99680.44
2023-05-09T12:55:29.225Z,99669.50
2023-05-09T12:58:02.919Z,99666.72
2023-05-09T13:00:45.083Z,99664.38
2023-05-09T13:03:26.437Z,99660.50
2023-05-09T13:05:56.408Z,99660.16
2023-05-09T13:08:23.532Z,99658.28
2023-05-09T13:10:52.268Z,99658.16
2023-05-09T13:13:25.303Z,99660.28
2023-05-09T13:15:52.625Z,99659.31
2023-05-09T13:18:19.662Z,99654.13
2023-05-09T13:20:47.149Z,99640.53
2023-05-09T13:23:14.032Z,99636.22
2023-05-09T13:25:40.936Z,99639.09
2023-05-09T13:28:07.705Z,99633.31
2023-05-09T13:30:37.350Z,99625.69
2023-05-09T13:33:16.709Z,99615.06
2023-05-09T13:35:51.433Z,99624.72
2023-05-09T13:38:18.186Z,99623.72
2023-05-09T13:40:45.004Z,99612.31
2023-05-09T13:43:12.072Z,99610.13
2023-05-09T13:45:38.942Z,99614.44
2023-05-09T13:48:06.055Z,99612.66
2023-05-09T13:50:32.983Z,99603.81
2023-05-09T13:53:00.008Z,99602.16
2023-05-09T13:55:26.894Z,99602.16
2023-05-09T13:57:53.764Z,99596.84
2023-05-09T14:00:21.056Z,99585.00
2023-05-09T14:02:48.330Z,99583.78
2023-05-09T14:05:15.348Z,99585.31
2023-05-09T14:07:42.300Z,99578.94
2023-05-09T14:10:11.834Z,99570.25
2023-05-09T14:12:40.303Z,99566.94
2023-05-09T14:15:08.488Z,99571.19
2023-05-09T14:17:35.480Z,99565.88
2023-05-09T14:20:02.577Z,99573.25
2023-05-09T14:22:29.427Z,99572.94
2023-05-09T14:24:57.005Z,99572.16
2023-05-09T14:27:23.868Z,99568.53
2023-05-09T14:29:50.912Z,99573.19
2023-05-09T14:32:17.835Z,99567.44
2023-05-09T14:34:44.743Z,99561.56
2023-05-09T14:37:11.656Z,99557.00
2023-05-09T14:39:38.566Z,99560.53
2023-05-09T14:42:05.657Z,99549.44
2023-05-09T14:44:32.592Z,99560.19
2023-05-09T14:46:59.490Z,99545.91
2023-05-09T14:49:26.427Z,99553.22
2023-05-09T14:51:53.247Z,99560.50
2023-05-09T14:54:19.963Z,99550.22
2023-05-09T14:56:47.606Z,99549.00
2023-05-09T14:59:14.724Z,99556.09
2023-05-09T15:01:41.528Z,99554.09
2023-05-09T15:04:08.422Z,99551.03
2023-05-09T15:06:35.601Z,99549.44
2023-05-09T15:09:02.293Z,99537.63
2023-05-09T15:11:36.359Z,99530.72
2023-05-09T15:14:10.372Z,99536.16
2023-05-09T15:16:38.093Z,99533.50
2023-05-09T15:19:05.800Z,99530.84
2023-05-09T15:21:32.704Z,99524.31
2023-05-09T15:23:59.811Z,99521.97
2023-05-09T15:26:27.412Z,99517.78
2023-05-09T15:28:54.584Z,99517.88
2023-05-09T15:31:21.594Z,99513.69
2023-05-09T15:33:48.959Z,99508.47
2023-05-09T15:36:15.834Z,99512.22
2023-05-09T15:38:42.669Z,99512.22
2023-05-09T15:41:09.600Z,99506.03
2023-05-09T15:43:37.061Z,99505.50
2023-05-09T15:46:04.168Z,99497.44
2023-05-09T15:48:31.139Z,99494.00
2023-05-09T15:50:57.900Z,99495.19
2023-05-09T15:53:24.904Z,99496.66
2023-05-09T15:55:51.794Z,99494.00
2023-05-09T15:58:18.740Z,99485.66
2023-05-09T16:00:45.542Z,99487.88
2023-05-09T16:03:12.485Z,99486.13
2023-05-09T16:05:39.281Z,99481.91
2023-05-09T16:08:06.159Z,99479.25
2023-05-09T16:10:33.435Z,99471.81
2023-05-09T16:13:00.390Z,99475.00
2023-05-09T16:15:27.234Z,99461.91
2023-05-09T16:17:54.302Z,99459.47
2023-05-09T16:20:21.139Z,99461.97
2023-05-09T16:22:48.378Z,99453.69
2023-05-09T16:25:16.783Z,99446.34
2023-05-09T16:27:44.675Z,99442.31
2023-05-09T16:30:12.034Z,99437.88
2023-05-09T16:32:38.915Z,99423.63
2023-05-09T16:35:06.448Z,99432.94
2023-05-09T16:37:35.443Z,99422.78
2023-05-09T16:40:03.137Z,99428.28
2023-05-09T16:42:30.099Z,99421.75
2023-05-09T16:44:57.533Z,99417.94
2023-05-09T16:47:24.415Z,99424.47
2023-05-09T16:49:51.188Z,99421.00
2023-05-09T16:52:18.022Z,99420.41
2023-05-09T16:54:44.768Z,99420.63
2023-05-09T16:57:11.568Z,99414.78
2023-05-09T16:59:38.313Z,99411.28
2023-05-09T17:02:05.136Z,99412.13
2023-05-09T17:04:32.062Z,99400.09
2023-05-09T17:06:59.036Z,99404.13
2023-05-09T17:09:25.974Z,99410.75
2023-05-09T17:11:52.742Z,99406.50
2023-05-09T17:14:19.617Z,99404.28
2023-05-09T17:16:46.380Z,99410.00
2023-05-09T17:19:13.845Z,99405.19
2023-05-09T17:21:40.646Z,99403.34
2023-05-09T17:24:09.174Z,99397.66
2023-05-09T17:26:36.035Z,99405.34
2023-05-09T17:29:02.925Z,99398.63
2023-05-09T17:31:29.707Z,99401.41
2023-05-09T17:33:56.607Z,99407.28
2023-05-09T17:36:23.630Z,99399.78
2023-05-09T17:38:50.492Z,99410.63
2023-05-09T17:41:17.289Z,99406.75
2023-05-09T17:43:44.026Z,99398.91
2023-05-09T17:46:10.781Z,99401.81
2023-05-09T17:48:37.655Z,99398.28
2023-05-09T17:51:04.368Z,99394.38
2023-05-09T17:53:31.167Z,99398.72
2023-05-09T17:55:58.394Z,99398.16
2023-05-09T17:58:25.335Z,99395.41
2023-05-09T18:00:54.977Z,99399.50
2023-05-09T18:03:21.913Z,99394.09
2023-05-09T18:05:48.960Z,99395.84
2023-05-09T18:08:17.148Z,99392.66
2023-05-09T18:10:44.069Z,99397.84
2023-05-09T18:13:11.040Z,99396.97
2023-05-09T18:15:38.106Z,99393.75
2023-05-09T18:18:06.726Z,99388.78
2023-05-09T18:20:33.836Z,99393.97
2023-05-09T18:23:00.725Z,99388.88
2023-05-09T18:25:27.532Z,99395.94
2023-05-09T18:27:54.594Z,99395.03
2023-05-09T18:30:21.440Z,99397.56
2023-05-09T18:32:48.303Z,99395.91
2023-05-09T18:35:15.400Z,99402.19
2023-05-09T18:37:42.941Z,99399.28
2023-05-09T18:40:10.003Z,99408.56
2023-05-09T18:42:36.932Z,99410.66
2023-05-09T18:45:04.056Z,99413.63
2023-05-09T18:47:30.901Z,99408.34
2023-05-09T18:49:58.492Z,99411.00
2023-05-09T18:52:26.613Z,99409.75
2023-05-09T18:54:53.834Z,99409.50
2023-05-09T18:57:21.115Z,99409.81
2023-05-09T18:59:48.019Z,99410.16
2023-05-09T19:02:14.781Z,99408.81
2023-05-09T19:04:41.889Z,99411.34
2023-05-09T19:07:11.642Z,99410.31
2023-05-09T19:09:38.656Z,99415.34
2023-05-09T19:12:06.065Z,99415.88
2023-05-09T19:14:33.314Z,99414.66
2023-05-09T19:17:04.296Z,99420.63
2023-05-09T19:19:32.139Z,99414.72
2023-05-09T19:22:01.768Z,99418.66
2023-05-09T19:24:28.789Z,99417.75
2023-05-09T19:26:55.523Z,99407.16
2023-05-09T19:29:22.512Z,99405.63
2023-05-09T19:32:01.900Z,99409.69
2023-05-09T19:34:30.903Z,99403.13
2023-05-09T19:36:58.476Z,99408.78
2023-05-09T19:39:25.648Z,99404.13
2023-05-09T19:41:52.947Z,99406.81
2023-05-09T19:44:20.689Z,99400.28
2023-05-09T19:46:49.623Z,99404.31
2023-05-09T19:49:18.009Z,99402.00
2023-05-09T19:51:45.690Z,99396.88
2023-05-09T19:54:13.398Z,99391.16
2023-05-09T19:56:40.934Z,99392.44
2023-05-09T19:59:08.072Z,99386.69
2023-05-09T20:01:35.037Z,99384.81
2023-05-09T20:04:02.092Z,99375.16
2023-05-09T20:09:13.782Z,99385.47
2023-05-09T20:11:41.308Z,99377.53
2023-05-09T20:14:08.807Z,99379.63
2023-05-09T20:16:36.464Z,99376.50
2023-05-09T20:19:04.199Z,99369.19
2023-05-09T20:21:31.893Z,99372.38
2023-05-09T20:23:59.865Z,99374.22
2023-05-09T20:26:27.503Z,99369.44
2023-05-09T20:28:55.126Z,99367.09
2023-05-09T20:31:23.110Z,99367.44
2023-05-09T20:33:50.922Z,99356.38
2023-05-09T20:36:18.696Z,99358.88
2023-05-09T20:38:46.082Z,99350.81
2023-05-09T20:41:13.688Z,99349.56
2023-05-09T20:43:41.444Z,99351.00
2023-05-09T20:46:09.402Z,99355.03
2023-05-09T20:48:36.971Z,99358.78
2023-05-09T20:51:04.209Z,99351.00
2023-05-09T20:53:31.043Z,99349.31
2023-05-09T20:56:01.536Z,99352.59
2023-05-09T20:58:31.247Z,99341.41
2023-05-09T21:00:58.180Z,99343.13
2023-05-09T21:03:25.121Z,99334.00
2023-05-09T21:05:51.916Z,99335.38
2023-05-09T21:08:18.648Z,99328.41
2023-05-09T21:10:45.477Z,99330.91
2023-05-09T21:13:12.204Z,99331.41
2023-05-09T21:15:38.986Z,99336.94
2023-05-09T21:18:05.870Z,99330.44
2023-05-09T21:20:32.668Z,99325.16
2023-05-09T21:22:59.483Z,99320.66
2023-05-09T21:25:26.256Z,99325.47
2023-05-09T21:27:52.967Z,99318.94
2023-05-09T21:30:19.822Z,99317.72
2023-05-09T21:32:46.612Z,99311.94
2023-05-09T21:35:13.382Z,99313.19
2023-05-09T21:37:40.083Z,99318.81
2023-05-09T21:40:07.738Z,99314.94
2023-05-09T21:42:34.493Z,99323.03
2023-05-09T21:45:02.097Z,99319.75
2023-05-09T21:47:29.052Z,99322.09
2023-05-09T21:49:56.244Z,99326.00
2023-05-09T21:52:22.977Z,99317.28
2023-05-09T21:54:49.744Z,99319.94
2023-05-09T21:57:16.362Z,99325.69
2023-05-09T21:59:43.217Z,99323.66
2023-05-09T22:02:10.018Z,99316.22
2023-05-09T22:04:36.862Z,99321.03
2023-05-09T22:07:03.609Z,99311.09
2023-05-09T22:09:30.419Z,99314.84
2023-05-09T22:11:57.144Z,99317.47
2023-05-09T22:14:24.043Z,99310.78
2023-05-09T22:16:50.757Z,99312.50
2023-05-09T22:19:17.685Z,99309.06
2023-05-09T22:21:44.402Z,99308.28
2023-05-09T22:24:11.255Z,99304.28
2023-05-09T22:26:37.881Z,99301.47
2023-05-09T22:29:04.626Z,99304.41
2023-05-09T22:31:31.514Z,99307.06
2023-05-09T22:33:58.391Z,99312.34
2023-05-09T22:36:25.143Z,99301.78
2023-05-09T22:38:51.896Z,99295.41
2023-05-09T22:41:19.384Z,99294.47
2023-05-09T22:43:46.162Z,99294.63
2023-05-09T22:46:13.010Z,99297.56
2023-05-09T22:48:39.974Z,99288.72
2023-05-09T22:51:06.803Z,99292.75
2023-05-09T22:53:33.589Z,99290.72
2023-05-09T22:56:00.431Z,99290.41
2023-05-09T22:58:27.402Z,99289.19
2023-05-09T23:00:54.165Z,99282.50
2023-05-09T23:03:21.233Z,99284.06
2023-05-09T23:05:48.366Z,99285.75
2023-05-09T23:08:15.327Z,99283.75
2023-05-09T23:10:42.213Z,99281.88
2023-05-09T23:13:09.068Z,99284.03
2023-05-09T23:15:36.187Z,99273.31
2023-05-09T23:18:03.186Z,99273.94
2023-05-09T23:20:29.962Z,99273.50
2023-05-09T23:22:56.929Z,99271.13
2023-05-09T23:25:23.832Z,99268.81
2023-05-09T23:27:50.712Z,99269.41
2023-05-09T23:30:17.780Z,99268.91
2023-05-09T23:32:45.013Z,99270.34
2023-05-09T23:35:12.138Z,99265.66
2023-05-09T23:37:38.975Z,99258.38
2023-05-09T23:40:06.446Z,99258.19
2023-05-09T23:42:33.280Z,99245.16
2023-05-09T23:45:00.227Z,99247.31
2023-05-09T23:47:27.117Z,99238.16
2023-05-09T23:49:54.033Z,99235.06
2023-05-09T23:52:20.995Z,99241.13
2023-05-09T23:54:48.420Z,99231.34
2023-05-09T23:57:15.287Z,99228.88
2023-05-09T23:59:42.182Z,99225.91
